Weather History for Claremore, OK

Change the Weather History Date:

Friday, May 24, 2013

  Actual Average (KTUL) Record (KTUL)
Temperature  
Mean Temperature 68 °F 71 °F  
Max Temperature 78 °F 81 °F 94 °F (1911)
Min Temperature 57 °F 62 °F 42 °F (1935)
Cooling Degree Days 2 7  
Month to date cooling degree days 114  
Year to date cooling degree days 179  
Growing Degree Days 18 (Base 50)    
Moisture  
Dew Point 59 °F    
Average Humidity 74    
Maximum Humidity 88    
Minimum Humidity 61    
Precipitation  
Precipitation 0.00 in 0.19 in 3.16 in (1908)
Month to date precipitation 4.59  
Year to date precipitation 15.18  
Sea Level Pressure  
Sea Level Pressure 30.20 in    
Wind  
Wind Speed 9 mph (ESE)    
Max Wind Speed 13 mph    
Max Gust Speed 20 mph    
Visibility 10 miles    
Events      
T = Trace of Precipitation, MM = Missing Value Source: NWS Daily Summary

Daily Weather History Graph

Daily Weather History Graph

Search for Another Location

Airport:

Trip Planner

Search our weather history database for the weather conditions in past years. The results will help you decide how hot, cold, wet, or windy it might be!

Date:

Astronomy

May. 24, 2013 Rise Set
Actual Time 6:09 AM CDT 8:28 PM CDT
Civil Twilight 5:39 AM CDT 8:58 PM CDT
Nautical Twilight 5:03 AM CDT 9:34 PM CDT
Astronomical Twilight 4:24 AM CDT 10:13 PM CDT
Moon 8:12 PM CDT (5/24) 5:40 AM CDT (5/24)
Length of Visible Light 15h 18m
Length of Day
14h 19m
Full, 100% of the Moon is Illuminated
May 24
Full
May 24
Full
May 31
Last Quarter
Jun 8
New
Jun 16
First Quarter

Hourly Weather History & Observations

Time (CDT) Temp. Dew Point Humidity Pressure Visibility Wind Dir Wind Speed Gust Speed Precip Events Conditions
12:15 AM 60.8 °F 55.4 °F 82% 30.18 in 10.0 mi ENE 6.9 mph - N/A   Clear
12:35 AM 60.8 °F 55.4 °F 82% 30.18 in 10.0 mi ENE 8.1 mph - N/A   Clear
12:55 AM 60.8 °F 55.4 °F 82% 30.18 in 10.0 mi ENE 8.1 mph - N/A   Clear
1:15 AM 60.8 °F 55.4 °F 82% 30.17 in 10.0 mi ENE 10.4 mph - N/A   Clear
1:35 AM 60.8 °F 55.4 °F 82% 30.17 in 10.0 mi NE 11.5 mph - N/A   Clear
1:55 AM 60.8 °F 55.4 °F 82% 30.17 in 10.0 mi ENE 11.5 mph - N/A   Clear
2:15 AM 60.8 °F 55.4 °F 82% 30.17 in 10.0 mi ENE 10.4 mph - N/A   Clear
2:35 AM 60.8 °F 55.4 °F 82% 30.17 in 10.0 mi ENE 9.2 mph - N/A   Clear
2:55 AM 60.8 °F 55.4 °F 82% 30.19 in 10.0 mi ENE 9.2 mph 17.3 mph N/A   Clear
3:15 AM 59.0 °F 55.4 °F 88% 30.18 in 10.0 mi ENE 10.4 mph - N/A   Clear
3:35 AM 59.0 °F 55.4 °F 88% 30.18 in 10.0 mi ENE 9.2 mph - N/A   Clear
3:55 AM 59.0 °F 55.4 °F 88% 30.19 in 10.0 mi ENE 10.4 mph - N/A   Clear
4:15 AM 59.0 °F 53.6 °F 82% 30.19 in 10.0 mi ENE 10.4 mph - N/A   Clear
4:35 AM 59.0 °F 53.6 °F 82% 30.20 in 10.0 mi ENE 12.7 mph - N/A   Clear
4:55 AM 59.0 °F 53.6 °F 82% 30.20 in 10.0 mi East 10.4 mph - N/A   Clear
5:15 AM 59.0 °F 53.6 °F 82% 30.21 in 10.0 mi ENE 9.2 mph - N/A   Clear
5:35 AM 59.0 °F 53.6 °F 82% 30.22 in 10.0 mi East 8.1 mph - N/A   Clear
5:55 AM 57.2 °F 53.6 °F 88% 30.23 in 10.0 mi ENE 9.2 mph - N/A   Clear
6:15 AM 57.2 °F 53.6 °F 88% 30.22 in 10.0 mi ENE 9.2 mph - N/A   Clear
6:35 AM 57.2 °F 53.6 °F 88% 30.23 in 10.0 mi ENE 9.2 mph - N/A   Clear
6:55 AM 59.0 °F 53.6 °F 82% 30.24 in 10.0 mi East 8.1 mph - N/A   Clear
7:15 AM 59.0 °F 53.6 °F 82% 30.23 in 10.0 mi East 9.2 mph - N/A   Clear
7:35 AM 60.8 °F 53.6 °F 77% 30.24 in 10.0 mi East 12.7 mph 17.3 mph N/A   Clear
7:55 AM 60.8 °F 55.4 °F 82% 30.24 in 10.0 mi East 10.4 mph - N/A   Clear
8:15 AM 60.8 °F 55.4 °F 82% 30.25 in 10.0 mi East 10.4 mph - N/A   Clear
8:35 AM 62.6 °F 55.4 °F 77% 30.25 in 10.0 mi East 9.2 mph - N/A   Clear
8:55 AM 62.6 °F 55.4 °F 77% 30.26 in 10.0 mi East 9.2 mph - N/A   Clear
9:15 AM 64.4 °F 55.4 °F 73% 30.26 in 10.0 mi ESE 10.4 mph - N/A   Clear
9:35 AM 66.2 °F 57.2 °F 73% 30.26 in 10.0 mi SE 10.4 mph - N/A   Clear
9:55 AM 68.0 °F 57.2 °F 68% 30.26 in 10.0 mi ESE 12.7 mph - N/A   Clear
10:15 AM 68.0 °F 59.0 °F 73% 30.26 in 10.0 mi ESE 11.5 mph - N/A   Clear
10:35 AM 68.0 °F 59.0 °F 73% 30.26 in 10.0 mi SE 10.4 mph 17.3 mph N/A   Clear
10:55 AM 69.8 °F 59.0 °F 68% 30.25 in 10.0 mi SE 12.7 mph 19.6 mph N/A   Clear
11:15 AM 69.8 °F 59.0 °F 68% 30.25 in 10.0 mi SE 10.4 mph - N/A   Clear
11:35 AM 71.6 °F 60.8 °F 69% 30.25 in 10.0 mi SE 10.4 mph - N/A   Clear
11:55 AM 71.6 °F 60.8 °F 69% 30.25 in 10.0 mi ESE 12.7 mph - N/A   Clear
12:15 PM 73.4 °F 60.8 °F 65% 30.25 in 10.0 mi SE 6.9 mph - N/A   Clear
12:35 PM 73.4 °F 60.8 °F 65% 30.25 in 10.0 mi SSE 8.1 mph - N/A   Scattered Clouds
12:55 PM 73.4 °F 62.6 °F 69% 30.24 in 10.0 mi SSE 6.9 mph - N/A   Scattered Clouds
1:15 PM 75.2 °F 62.6 °F 65% 30.24 in 10.0 mi SE 8.1 mph - N/A   Scattered Clouds
1:35 PM 75.2 °F 62.6 °F 65% 30.24 in 10.0 mi SSE 9.2 mph - N/A   Clear
1:55 PM 77.0 °F 62.6 °F 61% 30.23 in 10.0 mi ESE 10.4 mph - N/A   Clear
2:15 PM 77.0 °F 62.6 °F 61% 30.22 in 10.0 mi ESE 8.1 mph - N/A   Clear
2:35 PM 77.0 °F 64.4 °F 65% 30.22 in 10.0 mi SE 9.2 mph - N/A   Clear
2:55 PM 78.8 °F 64.4 °F 61% 30.22 in 10.0 mi SSE 9.2 mph - N/A   Clear
3:15 PM 78.8 °F 64.4 °F 61% 30.21 in 10.0 mi SSE 10.4 mph - N/A   Scattered Clouds
3:35 PM 78.8 °F 64.4 °F 61% 30.20 in 10.0 mi South 8.1 mph - N/A   Scattered Clouds
3:55 PM 78.8 °F 64.4 °F 61% 30.20 in 10.0 mi SSE 8.1 mph - N/A   Clear
4:15 PM 78.8 °F 64.4 °F 61% 30.19 in 10.0 mi SSE 9.2 mph - N/A   Clear
4:35 PM 78.8 °F 64.4 °F 61% 30.18 in 10.0 mi South 6.9 mph - N/A   Clear
4:55 PM 78.8 °F 64.4 °F 61% 30.17 in 10.0 mi South 8.1 mph - N/A   Clear
5:15 PM 78.8 °F 64.4 °F 61% 30.17 in 10.0 mi SE 9.2 mph - N/A   Clear
5:35 PM 78.8 °F 64.4 °F 61% 30.17 in 10.0 mi South 6.9 mph - N/A   Clear
5:55 PM 77.0 °F 64.4 °F 65% 30.16 in 10.0 mi SE 8.1 mph - N/A   Clear
6:15 PM 77.0 °F 64.4 °F 65% 30.16 in 10.0 mi SSE 10.4 mph - N/A   Clear
6:35 PM 77.0 °F 64.4 °F 65% 30.15 in 10.0 mi SSE 11.5 mph - N/A   Clear
6:55 PM 75.2 °F 64.4 °F 69% 30.15 in 10.0 mi SSE 10.4 mph - N/A   Clear
7:15 PM 75.2 °F 64.4 °F 69% 30.15 in 10.0 mi SE 9.2 mph - N/A   Clear
7:35 PM 73.4 °F 62.6 °F 69% 30.15 in 10.0 mi SE 6.9 mph - N/A   Clear
7:55 PM 71.6 °F 62.6 °F 73% 30.16 in 10.0 mi SE 6.9 mph - N/A   Clear
8:15 PM 71.6 °F 62.6 °F 73% 30.16 in 10.0 mi SSE 8.1 mph - N/A   Clear
8:35 PM 69.8 °F 62.6 °F 78% 30.15 in 10.0 mi SE 9.2 mph - N/A   Clear
8:55 PM 69.8 °F 62.6 °F 78% 30.16 in 10.0 mi SE 8.1 mph - N/A   Clear
9:15 PM 68.0 °F 60.8 °F 78% 30.16 in 10.0 mi SE 6.9 mph - N/A   Clear
9:35 PM 68.0 °F 60.8 °F 78% 30.16 in 10.0 mi SE 6.9 mph - N/A   Clear
9:55 PM 68.0 °F 60.8 °F 78% 30.17 in 10.0 mi ESE 6.9 mph - N/A   Clear
10:15 PM 68.0 °F 60.8 °F 78% 30.18 in 10.0 mi ESE 8.1 mph - N/A   Clear
10:35 PM 68.0 °F 60.8 °F 78% 30.19 in 10.0 mi SE 10.4 mph - N/A   Clear
10:55 PM 66.2 °F 60.8 °F 83% 30.19 in 10.0 mi SE 9.2 mph - N/A   Clear
11:15 PM 66.2 °F 59.0 °F 78% 30.19 in 10.0 mi SE 8.1 mph - N/A   Clear
11:35 PM 64.4 °F 59.0 °F 83% 30.18 in 10.0 mi SE 9.2 mph - N/A   Clear
11:55 PM 64.4 °F 59.0 °F 83% 30.18 in 10.0 mi SE 10.4 mph - N/A   Clear